Time;durP1;ratioP1;P1;durP2;ratioP2;P2;SDS_P1;SDS_P2;PMS_P1;PMS_P2;Temp;Humidity;BMP_temperature;BMP_pressure;BME280_temperature;BME280_humidity;BME280_pressure;Samples;Min_cycle;Max_cycle;Signal;HPM_P1;HPM_P2
2021/10/27 00:00:36;;;;;;;14.88;10.00;;;2.80;99.90;;;;;;5002899;28;20406;-90
2021/10/27 00:03:03;;;;;;;17.85;10.18;;;2.80;99.90;;;;;;4997194;28;20057;-90
2021/10/27 00:05:30;;;;;;;17.33;10.07;;;2.80;99.90;;;;;;4997161;28;20053;-91
2021/10/27 00:07:57;;;;;;;13.13;8.90;;;2.70;99.90;;;;;;4996708;28;20109;-91
2021/10/27 00:10:24;;;;;;;13.82;9.40;;;2.70;99.90;;;;;;4997132;28;20145;-91
2021/10/27 00:12:51;;;;;;;17.33;10.35;;;2.70;99.90;;;;;;4996721;28;20146;-91
2021/10/27 00:15:18;;;;;;;13.90;10.50;;;2.70;99.90;;;;;;4996808;28;20554;-91
2021/10/27 00:17:45;;;;;;;16.90;10.15;;;2.70;99.90;;;;;;4996869;28;20056;-90
2021/10/27 00:20:12;;;;;;;15.35;10.77;;;2.80;99.90;;;;;;4996985;28;20076;-90
2021/10/27 00:22:41;;;;;;;17.35;10.98;;;2.80;99.90;;;;;;4996805;28;20050;-90
2021/10/27 00:25:09;;;;;;;15.85;10.40;;;2.80;99.90;;;;;;4996816;28;20133;-91
2021/10/27 00:27:36;;;;;;;15.95;10.60;;;2.80;99.90;;;;;;4996567;28;20136;-90
2021/10/27 00:30:04;;;;;;;17.13;10.45;;;2.90;99.90;;;;;;4996667;28;20042;-90
2021/10/27 00:32:30;;;;;;;14.85;10.18;;;2.90;99.90;;;;;;4996941;28;20136;-90
2021/10/27 00:34:58;;;;;;;18.10;9.98;;;2.80;99.90;;;;;;4996581;28;20120;-90
2021/10/27 00:37:24;;;;;;;14.98;9.23;;;2.80;99.90;;;;;;4996723;28;20512;-91
2021/10/27 00:39:51;;;;;;;15.38;8.30;;;2.70;99.90;;;;;;5016386;28;20063;-90
2021/10/27 00:42:19;;;;;;;15.80;9.65;;;2.70;99.90;;;;;;5032604;28;20068;-90
2021/10/27 00:44:45;;;;;;;15.15;10.48;;;2.70;99.90;;;;;;5032275;28;20065;-90
2021/10/27 00:47:14;;;;;;;13.85;9.15;;;2.70;99.90;;;;;;5032760;28;20042;-90
2021/10/27 00:49:43;;;;;;;18.25;10.50;;;2.70;99.90;;;;;;5032503;28;20132;-90
2021/10/27 00:52:13;;;;;;;13.82;9.32;;;2.70;99.90;;;;;;5032414;28;20142;-90
2021/10/27 00:54:43;;;;;;;12.68;9.35;;;2.70;99.90;;;;;;5032369;28;20059;-90
2021/10/27 00:57:12;;;;;;;13.77;9.90;;;2.70;99.90;;;;;;5032472;28;20060;-90
2021/10/27 00:59:40;;;;;;;13.65;9.55;;;2.60;99.90;;;;;;5032568;28;20049;-90
2021/10/27 01:02:07;;;;;;;11.90;8.95;;;2.60;99.90;;;;;;5032382;28;20057;-90
2021/10/27 01:04:36;;;;;;;20.05;10.45;;;2.60;99.90;;;;;;5032686;28;20092;-90
2021/10/27 01:07:03;;;;;;;16.38;9.43;;;2.50;99.90;;;;;;5032327;28;20049;-90
2021/10/27 01:09:31;;;;;;;17.10;10.27;;;2.50;99.90;;;;;;5033360;28;20055;-91
2021/10/27 01:11:59;;;;;;;14.85;10.48;;;2.50;99.90;;;;;;5032863;28;20053;-90
2021/10/27 01:14:52;;;;;;;24.90;11.75;;;2.50;99.90;;;;;;5040045;28;20041;-90
2021/10/27 01:17:19;;;;;;;19.07;11.07;;;2.50;99.90;;;;;;5049649;28;20061;-90
2021/10/27 01:19:48;;;;;;;22.08;11.75;;;2.40;99.90;;;;;;5037947;28;20049;-90
2021/10/27 01:22:17;;;;;;;27.92;13.70;;;2.40;99.90;;;;;;5036547;28;20045;-90
2021/10/27 01:24:44;;;;;;;21.95;12.43;;;2.50;99.90;;;;;;5036291;28;20067;-90
2021/10/27 01:27:13;;;;;;;18.05;9.95;;;2.40;99.90;;;;;;5036167;28;20057;-90
2021/10/27 01:29:40;;;;;;;16.73;9.60;;;2.40;99.90;;;;;;5035967;28;20136;-90
2021/10/27 01:32:08;;;;;;;16.27;10.52;;;2.40;99.90;;;;;;5035797;28;20140;-90
2021/10/27 01:34:36;;;;;;;16.08;10.18;;;2.50;99.90;;;;;;5036190;28;20504;-90
2021/10/27 01:37:03;;;;;;;22.15;12.15;;;2.40;99.90;;;;;;5035478;28;20045;-90
2021/10/27 01:39:30;;;;;;;22.38;12.23;;;2.50;99.90;;;;;;5035890;28;20136;-89
2021/10/27 01:41:56;;;;;;;28.92;13.55;;;2.40;99.90;;;;;;5035765;28;20061;-90
2021/10/27 01:44:23;;;;;;;20.73;12.60;;;2.40;99.90;;;;;;5035875;28;20049;-90
2021/10/27 01:46:50;;;;;;;20.23;11.75;;;2.40;99.90;;;;;;5035438;28;20080;-89
2021/10/27 01:49:17;;;;;;;19.13;10.57;;;2.40;99.90;;;;;;5035299;28;20071;-89
2021/10/27 01:51:46;;;;;;;16.45;10.75;;;2.30;99.90;;;;;;5035502;28;20081;-90
2021/10/27 01:54:13;;;;;;;26.35;15.55;;;2.30;99.90;;;;;;5035752;28;20077;-91
2021/10/27 01:56:40;;;;;;;19.80;13.63;;;2.40;99.90;;;;;;5034955;28;20049;-89
2021/10/27 01:59:07;;;;;;;21.48;12.25;;;2.40;99.90;;;;;;5035346;28;20075;-90
2021/10/27 02:01:34;;;;;;;17.33;11.55;;;2.40;99.90;;;;;;5035821;28;20056;-89
2021/10/27 02:04:01;;;;;;;25.83;13.38;;;2.30;99.90;;;;;;5034971;28;20051;-89
2021/10/27 02:06:27;;;;;;;16.98;11.45;;;2.40;99.90;;;;;;5035436;28;20059;-89
2021/10/27 02:08:54;;;;;;;24.13;11.13;;;2.40;99.90;;;;;;5035336;28;20048;-90
2021/10/27 02:11:21;;;;;;;20.40;11.45;;;2.40;99.90;;;;;;5035321;28;20136;-88
2021/10/27 02:13:52;;;;;;;30.70;12.15;;;2.40;99.90;;;;;;5034791;28;20060;-89
2021/10/27 02:16:19;;;;;;;27.20;10.77;;;2.40;99.90;;;;;;5034885;28;20129;-89
2021/10/27 02:18:45;;;;;;;19.23;9.40;;;2.30;99.90;;;;;;5035061;28;20050;-89
2021/10/27 02:21:12;;;;;;;17.98;10.07;;;2.30;99.90;;;;;;5034943;28;20050;-90
2021/10/27 02:23:39;;;;;;;18.67;10.50;;;2.30;99.90;;;;;;5034437;28;20099;-89
2021/10/27 02:26:06;;;;;;;20.10;9.70;;;2.30;99.90;;;;;;5034784;28;20482;-89
2021/10/27 02:28:33;;;;;;;17.95;9.48;;;2.30;99.90;;;;;;5034796;28;20128;-89
2021/10/27 02:31:00;;;;;;;23.27;10.05;;;2.20;99.90;;;;;;5035110;28;20051;-89
2021/10/27 02:33:27;;;;;;;16.20;8.98;;;2.20;99.90;;;;;;5040779;28;20057;-89
2021/10/27 02:35:54;;;;;;;21.25;9.13;;;2.20;99.90;;;;;;5056960;28;20117;-89
2021/10/27 02:38:41;;;;;;;21.42;9.93;;;2.20;99.90;;;;;;5035521;28;20049;-89
2021/10/27 02:41:11;;;;;;;15.55;9.15;;;2.10;99.90;;;;;;4999062;28;20053;-87
2021/10/27 02:43:38;;;;;;;14.15;8.90;;;2.10;99.90;;;;;;4998622;28;20112;-88
2021/10/27 02:46:05;;;;;;;19.00;9.43;;;2.10;99.90;;;;;;4998495;28;20560;-89
2021/10/27 02:48:31;;;;;;;18.75;9.68;;;2.00;99.90;;;;;;4998553;28;20046;-89
2021/10/27 02:50:58;;;;;;;20.85;10.10;;;2.00;99.90;;;;;;4997043;28;20050;-89
2021/10/27 02:53:25;;;;;;;21.77;10.77;;;2.00;99.90;;;;;;4998232;28;20050;-89
2021/10/27 02:55:52;;;;;;;16.88;9.43;;;2.00;99.90;;;;;;4998293;28;20102;-89
2021/10/27 02:58:18;;;;;;;19.83;11.32;;;2.00;99.90;;;;;;4998093;28;20129;-89
2021/10/27 03:00:45;;;;;;;16.92;11.00;;;2.00;99.90;;;;;;4998775;28;20045;-89
2021/10/27 03:03:12;;;;;;;16.25;10.93;;;2.00;99.90;;;;;;4998666;28;20145;-89
2021/10/27 03:05:39;;;;;;;21.95;10.73;;;2.10;99.90;;;;;;4998205;28;20047;-89
2021/10/27 03:08:06;;;;;;;23.40;11.95;;;2.10;99.90;;;;;;4998030;28;20152;-89
2021/10/27 03:10:33;;;;;;;20.50;11.95;;;2.10;99.90;;;;;;4998379;28;20136;-89
2021/10/27 03:12:59;;;;;;;15.43;10.70;;;2.10;99.90;;;;;;4998478;28;20056;-89
2021/10/27 03:15:26;;;;;;;15.35;10.15;;;2.10;99.90;;;;;;4997746;28;20050;-89
2021/10/27 03:17:53;;;;;;;19.05;10.77;;;2.10;99.90;;;;;;4997446;28;20058;-89
2021/10/27 03:20:20;;;;;;;19.45;10.80;;;2.20;99.90;;;;;;4998033;28;20124;-89
2021/10/27 03:22:46;;;;;;;23.85;11.75;;;2.20;99.90;;;;;;4998020;28;20136;-89
2021/10/27 03:25:13;;;;;;;20.63;8.75;;;2.20;99.90;;;;;;4997468;28;20132;-89
2021/10/27 03:27:40;;;;;;;15.82;8.57;;;2.10;99.90;;;;;;4997832;28;20056;-89
2021/10/27 03:30:07;;;;;;;20.98;10.65;;;2.00;99.90;;;;;;4997812;28;20053;-89
2021/10/27 03:32:33;;;;;;;15.10;9.60;;;2.10;99.90;;;;;;4997927;28;20140;-89
2021/10/27 03:35:00;;;;;;;20.65;10.02;;;2.00;99.90;;;;;;4998736;28;20049;-89
2021/10/27 03:37:27;;;;;;;18.50;9.95;;;2.10;99.90;;;;;;4996790;28;20133;-89
2021/10/27 03:39:54;;;;;;;14.90;9.75;;;2.00;99.90;;;;;;5017951;28;20149;-88
2021/10/27 03:42:21;;;;;;;13.05;8.88;;;2.10;99.90;;;;;;5033552;28;20061;-88
2021/10/27 03:44:48;;;;;;;15.65;8.82;;;2.00;99.90;;;;;;5033505;28;20140;-88
2021/10/27 03:47:15;;;;;;;17.77;9.98;;;2.00;99.90;;;;;;5033437;28;20053;-88
2021/10/27 03:49:42;;;;;;;17.92;9.73;;;1.90;99.90;;;;;;5034124;28;20064;-89
2021/10/27 03:52:08;;;;;;;16.95;9.30;;;1.90;99.90;;;;;;5045067;28;20104;-89
2021/10/27 03:54:35;;;;;;;24.45;10.73;;;1.90;99.90;;;;;;5057711;28;20069;-88
2021/10/27 03:57:03;;;;;;;23.55;10.73;;;1.90;99.90;;;;;;5039951;28;20137;-89
2021/10/27 03:59:29;;;;;;;14.25;9.27;;;1.90;99.90;;;;;;5033443;28;20059;-89
2021/10/27 04:01:56;;;;;;;36.30;11.77;;;1.90;99.90;;;;;;5032846;28;20057;-89
2021/10/27 04:04:23;;;;;;;20.35;10.93;;;1.90;99.90;;;;;;5032843;28;20041;-88
2021/10/27 04:06:50;;;;;;;21.70;10.00;;;1.90;99.90;;;;;;5033201;28;20056;-89
2021/10/27 04:09:17;;;;;;;19.05;9.05;;;1.90;99.90;;;;;;5033024;28;20056;-88
2021/10/27 04:11:43;;;;;;;13.60;8.77;;;1.90;99.90;;;;;;5033235;28;20141;-89
2021/10/27 04:14:10;;;;;;;15.20;8.77;;;1.90;99.90;;;;;;5032928;28;20094;-89
2021/10/27 04:16:37;;;;;;;20.45;10.50;;;1.90;99.90;;;;;;5032557;28;20048;-88
2021/10/27 04:19:04;;;;;;;15.73;10.15;;;1.80;99.90;;;;;;5032678;28;20521;-89
2021/10/27 04:21:31;;;;;;;21.33;10.07;;;1.90;99.90;;;;;;5033015;28;20042;-88
2021/10/27 04:23:58;;;;;;;20.38;9.90;;;1.90;99.90;;;;;;5032615;28;20120;-89
2021/10/27 04:26:25;;;;;;;16.58;10.05;;;1.80;99.90;;;;;;5033652;28;20053;-87
2021/10/27 04:28:52;;;;;;;22.40;10.07;;;1.80;99.90;;;;;;5032501;28;20136;-88
2021/10/27 04:31:20;;;;;;;21.35;10.90;;;1.90;99.90;;;;;;5032532;28;20131;-88
2021/10/27 04:33:47;;;;;;;21.42;9.68;;;1.90;99.90;;;;;;5032343;28;20053;-88
2021/10/27 04:36:15;;;;;;;19.48;10.20;;;1.90;99.90;;;;;;5033312;28;20474;-88
2021/10/27 04:38:42;;;;;;;29.55;11.57;;;1.80;99.90;;;;;;5030942;28;20490;-89
2021/10/27 04:41:10;;;;;;;18.30;9.88;;;1.80;99.90;;;;;;4996835;28;20045;-89
2021/10/27 04:43:37;;;;;;;24.52;10.05;;;1.80;99.90;;;;;;5013567;28;20061;-88
2021/10/27 04:46:04;;;;;;;22.33;10.57;;;1.80;99.90;;;;;;5013405;28;20052;-88
2021/10/27 04:48:31;;;;;;;21.25;10.40;;;1.90;99.90;;;;;;4996789;28;20395;-88
2021/10/27 04:50:58;;;;;;;26.63;10.98;;;1.80;99.90;;;;;;4996520;28;20104;-88
2021/10/27 04:53:25;;;;;;;19.77;10.60;;;1.90;99.90;;;;;;4996972;28;20050;-88
2021/10/27 04:55:52;;;;;;;35.00;11.48;;;1.90;99.90;;;;;;4996260;28;20061;-88
2021/10/27 04:58:20;;;;;;;26.77;10.30;;;1.90;99.90;;;;;;4996626;28;20046;-88
2021/10/27 05:00:48;;;;;;;21.02;9.73;;;1.90;99.90;;;;;;5013748;28;20042;-88
2021/10/27 05:03:15;;;;;;;24.73;10.77;;;2.00;99.90;;;;;;4996063;28;20053;-88
2021/10/27 05:05:46;;;;;;;23.15;9.85;;;2.00;99.90;;;;;;4996155;28;20129;-88
2021/10/27 05:08:15;;;;;;;25.83;11.13;;;2.00;99.90;;;;;;4996656;28;20052;-89
2021/10/27 05:10:42;;;;;;;33.92;12.93;;;2.00;99.90;;;;;;5000229;28;20064;-88
2021/10/27 05:13:09;;;;;;;23.45;11.63;;;2.10;99.90;;;;;;5019683;28;20042;-89
2021/10/27 05:15:36;;;;;;;38.67;13.65;;;2.20;99.90;;;;;;5003356;28;20128;-89
2021/10/27 05:18:03;;;;;;;32.08;12.93;;;2.30;99.90;;;;;;4995683;28;20054;-89
2021/10/27 05:20:30;;;;;;;41.72;16.27;;;2.40;99.90;;;;;;4996544;28;20124;-87
2021/10/27 05:22:57;;;;;;;29.40;14.98;;;2.50;99.90;;;;;;4996166;28;20387;-89
2021/10/27 05:25:24;;;;;;;35.70;15.50;;;2.70;99.90;;;;;;4995946;28;20050;-88
2021/10/27 05:27:50;;;;;;;60.85;19.60;;;2.90;99.90;;;;;;5013217;28;20058;-89
2021/10/27 05:30:17;;;;;;;37.97;16.05;;;3.00;99.90;;;;;;5013228;28;20050;-89
2021/10/27 05:32:44;;;;;;;53.63;20.38;;;3.20;99.90;;;;;;4995325;28;20075;-87
2021/10/27 05:35:11;;;;;;;38.15;17.02;;;3.30;99.90;;;;;;4995749;28;20045;-88
2021/10/27 05:37:38;;;;;;;62.83;21.45;;;3.50;99.90;;;;;;4996004;28;20483;-88
2021/10/27 05:40:05;;;;;;;43.50;19.02;;;3.60;99.90;;;;;;5019564;28;20049;-88
2021/10/27 05:42:33;;;;;;;46.65;19.65;;;3.60;99.90;;;;;;5031997;28;20056;-88
2021/10/27 05:45:03;;;;;;;49.67;17.85;;;3.70;99.90;;;;;;5031474;28;20049;-87
2021/10/27 05:47:31;;;;;;;133.80;24.30;;;3.70;99.90;;;;;;5031878;28;20065;-89
2021/10/27 05:55:33;;;;;;;78.68;20.13;;;3.90;99.90;;;;;;5032661;28;20111;-89
2021/10/27 05:58:01;;;;;;;68.70;17.58;;;3.90;99.90;;;;;;5031251;28;20053;-88
2021/10/27 06:00:27;;;;;;;68.78;15.80;;;3.90;99.90;;;;;;5034670;28;20507;-88
2021/10/27 06:02:55;;;;;;;60.75;16.58;;;3.90;99.90;;;;;;5035472;28;20049;-88
2021/10/27 06:05:21;;;;;;;45.22;17.05;;;4.00;99.90;;;;;;5035133;28;20048;-88
2021/10/27 06:07:49;;;;;;;49.67;23.85;;;4.10;99.90;;;;;;5034805;28;20147;-88
2021/10/27 06:10:20;;;;;;;40.97;20.92;;;4.10;99.90;;;;;;5035395;28;20050;-88
2021/10/27 06:12:52;;;;;;;39.47;22.33;;;4.30;99.90;;;;;;5035103;28;20058;-88
2021/10/27 06:15:21;;;;;;;40.80;22.00;;;4.40;99.90;;;;;;5035072;28;20498;-88
2021/10/27 06:17:47;;;;;;;49.92;24.10;;;4.50;99.90;;;;;;5034739;28;20542;-88
2021/10/27 06:20:15;;;;;;;28.80;14.85;;;4.60;99.90;;;;;;5035249;28;20136;-89
2021/10/27 06:22:43;;;;;;;27.35;13.63;;;4.70;99.90;;;;;;5035140;28;20059;-89
2021/10/27 06:25:11;;;;;;;27.08;14.82;;;5.30;99.90;;;;;;5034703;28;20061;-89
2021/10/27 06:27:42;;;;;;;28.88;14.52;;;5.90;99.90;;;;;;5035248;28;20049;-89
2021/10/27 06:30:13;;;;;;;31.95;16.38;;;6.30;99.90;;;;;;5045119;28;20045;-89
2021/10/27 06:35:42;;;;;;;35.97;20.40;;;7.00;99.90;;;;;;5035516;28;20149;-88
2021/10/27 06:38:26;;;;;;;28.45;15.82;;;7.20;99.90;;;;;;5034477;28;20049;-90
2021/10/27 06:46:38;;;;;;;28.08;15.85;;;7.20;99.90;;;;;;5035327;28;20052;-88
2021/10/27 06:49:06;;;;;;;25.90;14.45;;;7.10;99.90;;;;;;5034874;28;20055;-88
2021/10/27 06:51:34;;;;;;;23.38;14.30;;;7.00;99.90;;;;;;5034498;28;20061;-88
2021/10/27 06:54:01;;;;;;;30.38;16.75;;;7.00;99.90;;;;;;5034082;28;20057;-88
2021/10/27 06:56:29;;;;;;;30.55;17.23;;;7.00;99.90;;;;;;5034401;28;20482;-87
2021/10/27 06:59:03;;;;;;;28.20;16.75;;;7.00;99.90;;;;;;5034455;28;20045;-88
2021/10/27 07:02:03;;;;;;;28.38;15.60;;;7.00;99.90;;;;;;5034310;28;20063;-88
2021/10/27 07:14:54;;;;;;;27.77;15.57;;;7.00;99.90;;;;;;5035084;28;20053;-88
2021/10/27 07:15:32;;;;;;;24.40;14.05;;;7.00;99.90;;;;;;5035009;28;20124;-88
2021/10/27 07:17:59;;;;;;;47.00;28.58;;;7.10;99.90;;;;;;5033834;28;20049;-88
2021/10/27 07:20:27;;;;;;;48.50;23.33;;;7.20;99.90;;;;;;5034170;28;20160;-88
2021/10/27 07:22:56;;;;;;;109.22;88.18;;;7.10;99.90;;;;;;5033725;28;20585;-88
2021/10/27 07:25:23;;;;;;;67.97;50.97;;;7.20;99.90;;;;;;5033732;28;20045;-89
2021/10/27 07:27:51;;;;;;;59.97;38.35;;;7.30;99.90;;;;;;5033895;28;20136;-89
2021/10/27 07:30:18;;;;;;;40.15;26.60;;;7.40;99.90;;;;;;5034251;28;20045;-88
2021/10/27 07:32:45;;;;;;;60.35;36.33;;;7.60;99.90;;;;;;5033940;28;20140;-89
2021/10/27 07:40:41;;;;;;;69.22;33.17;;;8.50;99.90;;;;;;5016337;28;20053;-89
2021/10/27 07:43:13;;;;;;;52.47;30.02;;;8.90;99.90;;;;;;4998129;28;20052;-89
2021/10/27 07:45:41;;;;;;;63.63;32.08;;;8.80;99.90;;;;;;4997294;28;20056;-88
2021/10/27 07:48:08;;;;;;;48.33;27.55;;;9.00;99.90;;;;;;4998970;28;20057;-89
2021/10/27 07:50:37;;;;;;;34.28;20.35;;;9.10;99.90;;;;;;5019456;28;20070;-89
2021/10/27 07:53:07;;;;;;;56.33;28.98;;;9.10;99.90;;;;;;5006110;28;20133;-89
2021/10/27 07:55:39;;;;;;;23.90;16.45;;;9.10;99.90;;;;;;5002337;28;20137;-89
2021/10/27 07:58:07;;;;;;;26.67;16.35;;;9.10;99.90;;;;;;5007949;28;20136;-89
2021/10/27 08:00:34;;;;;;;49.15;34.83;;;9.40;99.90;;;;;;5002650;28;20148;-90
2021/10/27 08:03:02;;;;;;;37.13;27.45;;;9.70;99.90;;;;;;4997415;28;20080;-88
2021/10/27 08:05:32;;;;;;;33.03;21.80;;;9.90;99.90;;;;;;4997090;28;20137;-89
2021/10/27 08:07:58;;;;;;;31.80;21.83;;;10.10;99.90;;;;;;5007248;28;20512;-89
2021/10/27 08:10:26;;;;;;;13.90;11.77;;;10.20;99.90;;;;;;5007696;28;20465;-89
2021/10/27 08:12:54;;;;;;;22.92;15.25;;;10.50;99.90;;;;;;5004761;28;20144;-90
2021/10/27 08:15:20;;;;;;;24.98;17.27;;;10.90;99.90;;;;;;4997080;28;20046;-89
2021/10/27 08:17:48;;;;;;;19.25;13.23;;;11.10;99.90;;;;;;4996886;28;20125;-90
2021/10/27 08:20:17;;;;;;;18.38;11.82;;;11.40;99.90;;;;;;4997205;28;20501;-89
2021/10/27 08:22:45;;;;;;;12.30;9.75;;;11.70;99.90;;;;;;4996511;28;20053;-91
2021/10/27 08:25:22;;;;;;;13.00;10.48;;;11.70;99.90;;;;;;4997099;28;20418;-90
2021/10/27 08:27:50;;;;;;;5.57;5.07;;;12.00;99.90;;;;;;4996510;28;20056;-91
2021/10/27 08:30:19;;;;;;;8.27;4.70;;;12.10;99.90;;;;;;4996946;28;20088;-91
2021/10/27 08:32:52;;;;;;;5.50;4.25;;;12.00;99.90;;;;;;4997040;28;20137;-92
2021/10/27 08:35:19;;;;;;;5.63;4.38;;;11.80;99.90;;;;;;4996971;28;20049;-90
2021/10/27 08:37:48;;;;;;;5.32;4.00;;;11.70;99.90;;;;;;4996796;28;20532;-92
2021/10/27 08:40:19;;;;;;;5.55;4.70;;;11.60;99.90;;;;;;5022802;28;20171;-92
2021/10/27 08:42:47;;;;;;;5.07;3.85;;;11.50;99.90;;;;;;5032443;28;20103;-91
2021/10/27 08:45:14;;;;;;;5.70;5.10;;;11.40;99.90;;;;;;5032728;28;20076;-91
2021/10/27 08:47:42;;;;;;;8.23;4.78;;;11.40;99.90;;;;;;5032764;28;20148;-91
2021/10/27 08:50:12;;;;;;;5.05;4.60;;;11.40;99.90;;;;;;5032620;28;20391;-91
2021/10/27 08:52:40;;;;;;;5.03;4.30;;;11.30;99.90;;;;;;5032969;28;20512;-92
2021/10/27 08:55:11;;;;;;;10.45;6.50;;;11.20;99.90;;;;;;5032367;28;20065;-91
2021/10/27 08:57:39;;;;;;;5.78;5.00;;;11.30;99.90;;;;;;5032632;28;20413;-91
2021/10/27 09:00:30;;;;;;;269.35;155.85;;;11.30;99.90;;;;;;5032592;28;20468;-92
2021/10/27 09:05:36;;;;;;;53.25;31.27;;;11.30;99.90;;;;;;5033768;28;20505;-91
2021/10/27 09:08:36;;;;;;;16.00;11.85;;;11.30;99.90;;;;;;5041898;28;20097;-91
2021/10/27 09:37:17;;;;;;;8.73;4.50;;;12.10;99.90;;;;;;5037152;28;20107;-90
2021/10/27 10:05:04;;;;;;;18.73;15.52;;;12.60;99.90;;;;;;5016167;28;20054;-91
2021/10/27 10:07:34;;;;;;;18.55;13.80;;;12.60;99.90;;;;;;5016253;28;20492;-91
2021/10/27 10:10:07;;;;;;;9.00;8.10;;;12.80;99.90;;;;;;4998091;28;20132;-91
2021/10/27 10:12:40;;;;;;;5.73;5.00;;;13.10;99.90;;;;;;4997900;28;20056;-91
2021/10/27 10:15:07;;;;;;;;;;;13.30;99.90;;;;;;4998451;28;20431;-92
2021/10/27 10:17:40;;;;;;;4.90;4.18;;;13.40;99.90;;;;;;4998989;28;19929;-91
2021/10/27 10:20:13;;;;;;;6.28;3.13;;;13.40;99.90;;;;;;4999456;28;20060;-92
2021/10/27 10:23:20;;;;;;;3.00;2.50;;;13.30;99.90;;;;;;5016610;28;20057;-91
2021/10/27 10:26:06;;;;;;;3.10;2.20;;;13.60;99.90;;;;;;5002759;28;20084;-92
2021/10/27 10:28:42;;;;;;;2.58;2.38;;;14.00;99.90;;;;;;5024020;28;20106;-91
2021/10/27 10:31:30;;;;;;;2.47;2.33;;;14.40;99.90;;;;;;5003885;28;20072;-92
2021/10/27 10:34:01;;;;;;;2.37;2.10;;;14.60;99.90;;;;;;5009512;28;20057;-92
2021/10/27 10:36:31;;;;;;;4.32;2.55;;;14.70;99.90;;;;;;5009299;28;20049;-93
2021/10/27 10:59:24;;;;;;;5.95;2.10;;;14.30;99.90;;;;;;5055125;28;20055;-89
2021/10/27 11:24:59;;;;;;;1.50;1.40;;;14.10;99.90;;;;;;5054692;28;20104;-91
2021/10/27 11:37:14;;;;;;;3.97;1.77;;;14.10;99.90;;;;;;5037577;28;20409;-91
2021/10/27 11:44:57;;;;;;;1.42;1.33;;;14.10;99.90;;;;;;5042498;28;20053;-91
2021/10/27 11:47:46;;;;;;;1.42;1.33;;;14.20;99.90;;;;;;5041528;28;20084;-91
2021/10/27 11:50:18;;;;;;;1.30;1.30;;;14.30;99.90;;;;;;5017475;28;20061;-91
2021/10/27 11:52:52;;;;;;;1.48;1.38;;;14.40;99.90;;;;;;5016783;28;20115;-93
2021/10/27 11:55:21;;;;;;;2.08;1.00;;;14.50;99.90;;;;;;5017753;28;20072;-91
2021/10/27 11:57:53;;;;;;;13.60;1.88;;;14.50;99.90;;;;;;5018046;28;20053;-91
2021/10/27 12:00:24;;;;;;;4.38;1.45;;;14.60;99.90;;;;;;5017195;28;20077;-92
2021/10/27 12:02:55;;;;;;;1.80;1.20;;;14.60;99.90;;;;;;5016848;28;20055;-92
2021/10/27 12:05:29;;;;;;;2.17;1.35;;;14.70;99.90;;;;;;5021668;28;20065;-90
2021/10/27 12:08:29;;;;;;;1.80;1.25;;;14.50;99.90;;;;;;5019192;28;20465;-89
2021/10/27 12:11:11;;;;;;;2.25;1.50;;;14.40;99.90;;;;;;5018502;28;20049;-90
2021/10/27 12:13:58;;;;;;;1.50;1.40;;;14.20;99.90;;;;;;5022220;28;20109;-93
2021/10/27 12:19:23;;;;;;;8.23;1.83;;;13.70;99.90;;;;;;5034124;28;20055;-93
2021/10/27 12:22:08;;;;;;;1.48;1.40;;;13.60;99.90;;;;;;5018887;28;20045;-89
2021/10/27 12:24:37;;;;;;;5.38;2.00;;;13.60;99.90;;;;;;5034100;28;20490;-92
2021/10/27 12:27:23;;;;;;;1.75;1.65;;;13.70;99.90;;;;;;5034018;28;20056;-91
2021/10/27 12:29:53;;;;;;;2.50;2.40;;;13.80;99.90;;;;;;5016345;28;20046;-90
2021/10/27 12:32:20;;;;;;;2.55;1.80;;;13.70;99.90;;;;;;5016325;28;20391;-90
2021/10/27 12:35:06;;;;;;;3.85;1.80;;;13.80;99.90;;;;;;5016203;28;20054;-91
2021/10/27 12:37:44;;;;;;;1.52;1.42;;;13.80;99.90;;;;;;5015208;28;20049;-91
2021/10/27 12:40:40;;;;;;;1.33;1.30;;;13.80;99.90;;;;;;5029854;28;20059;-90
2021/10/27 12:43:17;;;;;;;2.35;2.15;;;13.60;99.90;;;;;;5037962;28;20235;-89
2021/10/27 12:45:50;;;;;;;11.27;2.55;;;13.50;99.90;;;;;;5054452;28;20091;-93
2021/10/27 12:48:24;;;;;;;1.80;1.70;;;13.40;99.90;;;;;;5039545;28;20088;-94
2021/10/27 12:50:55;;;;;;;1.25;1.25;;;13.30;99.90;;;;;;5037909;28;20508;-89
2021/10/27 12:53:43;;;;;;;1.60;1.50;;;13.30;99.90;;;;;;5037882;28;20077;-91
2021/10/27 12:56:13;;;;;;;3.17;1.70;;;13.20;99.90;;;;;;5036332;28;20053;-91
2021/10/27 12:58:44;;;;;;;1.70;1.60;;;13.30;99.90;;;;;;5038751;28;20049;-91
2021/10/27 13:30:54;;;;;;;1.90;1.80;;;12.80;99.90;;;;;;5057878;28;20045;-91
2021/10/27 13:33:23;;;;;;;5.63;2.20;;;12.80;99.90;;;;;;5039464;28;20099;-92
2021/10/27 13:35:50;;;;;;;2.20;2.10;;;12.90;99.90;;;;;;5038924;28;20068;-92
2021/10/27 13:38:19;;;;;;;2.95;1.90;;;12.90;99.90;;;;;;5039216;28;20051;-92
2021/10/27 13:40:47;;;;;;;3.65;2.25;;;13.00;99.90;;;;;;5038710;28;20053;-91
2021/10/27 13:43:50;;;;;;;2.30;2.13;;;13.00;99.90;;;;;;5039876;28;20443;-92
2021/10/27 14:07:57;;;;;;;2.20;2.10;;;12.90;99.90;;;;;;5056366;28;20061;-91
2021/10/27 14:10:57;;;;;;;3.28;2.30;;;12.90;99.90;;;;;;5041440;28;20106;-91
2021/10/27 14:13:38;;;;;;;4.35;2.10;;;12.80;99.90;;;;;;5039111;28;20045;-91
2021/10/27 14:16:35;;;;;;;5.35;1.70;;;12.90;99.90;;;;;;5038855;28;20048;-91
2021/10/27 15:19:49;;;;;;;3.55;2.20;;;12.30;99.90;;;;;;5035245;28;20049;-91
2021/10/27 15:30:27;;;;;;;1.63;1.52;;;12.20;99.90;;;;;;5036048;28;20049;-89
2021/10/27 15:40:24;;;;;;;2.63;1.30;;;12.10;99.90;;;;;;5040788;28;20109;-91
2021/10/27 15:41:23;;;;;;;2.03;1.50;;;12.10;99.90;;;;;;5079683;28;20029;-92
2021/10/27 15:51:51;;;;;;;1.70;1.40;;;11.90;99.90;;;;;;5054866;28;20072;-89
2021/10/27 15:54:19;;;;;;;1.30;1.20;;;12.00;99.90;;;;;;5055065;28;20045;-91
2021/10/27 15:56:46;;;;;;;16.52;8.77;;;12.00;99.90;;;;;;5037361;28;20144;-92
2021/10/27 15:59:14;;;;;;;5.25;3.30;;;11.90;99.90;;;;;;5037452;28;20139;-91
2021/10/27 16:01:41;;;;;;;3.08;2.80;;;11.90;99.90;;;;;;5037490;28;20045;-94
2021/10/27 16:04:08;;;;;;;1.67;1.27;;;11.90;99.90;;;;;;5039090;28;20052;-90
2021/10/27 16:06:49;;;;;;;1.40;1.30;;;11.90;99.90;;;;;;5037133;28;20132;-91
2021/10/27 16:09:17;;;;;;;1.05;1.05;;;11.90;99.90;;;;;;5038009;28;20449;-88
2021/10/27 16:11:46;;;;;;;7.47;1.88;;;11.90;99.90;;;;;;5036962;28;20559;-90
2021/10/27 16:14:13;;;;;;;2.17;1.75;;;11.80;99.90;;;;;;5038189;28;20090;-92
2021/10/27 16:16:40;;;;;;;1.50;1.40;;;11.80;99.90;;;;;;5037586;28;20509;-92
2021/10/27 16:19:18;;;;;;;3.53;1.75;;;11.80;99.90;;;;;;5024602;28;20040;-91
2021/10/27 16:22:04;;;;;;;1.88;1.77;;;11.80;99.90;;;;;;5040837;28;20048;-90
2021/10/27 16:24:31;;;;;;;7.18;2.33;;;11.80;99.90;;;;;;5037026;28;20135;-91
2021/10/27 16:26:58;;;;;;;6.38;1.80;;;11.90;99.90;;;;;;5036802;28;20052;-92
2021/10/27 16:29:25;;;;;;;1.88;1.77;;;11.80;99.90;;;;;;5036672;28;20152;-90
2021/10/27 16:31:52;;;;;;;1.67;1.58;;;11.90;99.90;;;;;;5036561;28;20048;-91
2021/10/27 16:34:19;;;;;;;2.35;2.03;;;11.90;99.90;;;;;;5036697;28;20056;-91
2021/10/27 16:36:48;;;;;;;3.03;2.65;;;11.90;99.90;;;;;;5036430;28;20045;-89
2021/10/27 16:39:17;;;;;;;1.67;1.52;;;11.90;99.90;;;;;;5036210;28;20049;-91
2021/10/27 16:41:44;;;;;;;4.47;2.25;;;11.90;99.90;;;;;;5037083;28;20056;-91
2021/10/27 16:44:12;;;;;;;2.65;2.42;;;11.80;99.90;;;;;;5037594;28;20045;-91
2021/10/27 16:46:39;;;;;;;5.18;3.40;;;11.80;99.90;;;;;;5036805;28;20462;-90
2021/10/27 16:49:06;;;;;;;3.67;3.47;;;11.80;99.90;;;;;;5038831;28;20048;-88
2021/10/27 16:51:34;;;;;;;3.72;3.40;;;11.70;99.90;;;;;;5036799;28;20049;-88
2021/10/27 16:54:01;;;;;;;3.15;2.85;;;11.60;99.90;;;;;;5039575;28;20048;-92
2021/10/27 16:56:29;;;;;;;3.63;2.67;;;11.70;99.90;;;;;;5039936;28;20478;-92
2021/10/27 16:58:56;;;;;;;2.05;1.95;;;11.70;99.90;;;;;;5059894;28;20080;-90
2021/10/27 17:01:23;;;;;;;2.47;2.28;;;11.70;99.90;;;;;;5048914;28;20505;-92
2021/10/27 17:03:54;;;;;;;2.47;2.28;;;11.70;99.90;;;;;;5060936;28;20045;-90
2021/10/27 17:06:21;;;;;;;2.38;2.28;;;11.70;99.90;;;;;;5039847;28;20049;-91
2021/10/27 17:08:49;;;;;;;3.13;2.40;;;11.70;99.90;;;;;;5037032;28;20045;-92
2021/10/27 17:11:23;;;;;;;2.63;2.42;;;11.70;99.90;;;;;;5022226;28;20565;-91
2021/10/27 17:13:50;;;;;;;3.20;2.00;;;11.60;99.90;;;;;;5036382;28;20137;-90
2021/10/27 17:16:19;;;;;;;4.13;2.38;;;11.60;99.90;;;;;;5036605;28;20496;-91
2021/10/27 17:18:46;;;;;;;2.03;1.92;;;11.60;99.90;;;;;;5036492;28;20103;-91
2021/10/27 17:21:13;;;;;;;3.33;2.50;;;11.70;99.90;;;;;;5036724;28;20045;-92
2021/10/27 17:23:41;;;;;;;2.38;1.90;;;11.60;99.90;;;;;;5036572;28;20128;-90
2021/10/27 17:26:08;;;;;;;4.72;2.50;;;11.60;99.90;;;;;;5036432;28;20409;-89
2021/10/27 17:28:34;;;;;;;2.33;2.13;;;11.70;99.90;;;;;;5036355;28;20045;-89
2021/10/27 17:31:02;;;;;;;2.63;2.42;;;11.70;99.90;;;;;;5018945;28;20046;-92